sensor_id;sensor_type;location;lat;lon;timestamp;P1;durP1;ratioP1;P2;durP2;ratioP2
80247;SDS011;69560;52.206;21.018;2023-08-07T00:00:52;0.20;;;0.20;;
80247;SDS011;69560;52.206;21.018;2023-08-07T00:03:33;0.20;;;0.20;;
80247;SDS011;69560;52.206;21.018;2023-08-07T00:06:01;0.40;;;0.20;;
80247;SDS011;69560;52.206;21.018;2023-08-07T00:08:27;0.20;;;0.20;;
80247;SDS011;69560;52.206;21.018;2023-08-07T00:11:03;0.50;;;0.20;;
80247;SDS011;69560;52.206;21.018;2023-08-07T00:13:46;0.20;;;0.10;;
80247;SDS011;69560;52.206;21.018;2023-08-07T00:16:12;4.30;;;0.20;;
80247;SDS011;69560;52.206;21.018;2023-08-07T00:18:39;0.80;;;0.20;;
80247;SDS011;69560;52.206;21.018;2023-08-07T00:21:05;0.50;;;0.20;;
80247;SDS011;69560;52.206;21.018;2023-08-07T00:23:32;0.40;;;0.10;;
80247;SDS011;69560;52.206;21.018;2023-08-07T00:26:00;0.20;;;0.20;;
80247;SDS011;69560;52.206;21.018;2023-08-07T00:28:26;0.30;;;0.20;;
80247;SDS011;69560;52.206;21.018;2023-08-07T00:30:54;1.00;;;0.20;;
80247;SDS011;69560;52.206;21.018;2023-08-07T00:33:20;0.50;;;0.30;;
80247;SDS011;69560;52.206;21.018;2023-08-07T00:35:47;0.20;;;0.20;;
80247;SDS011;69560;52.206;21.018;2023-08-07T00:38:13;0.80;;;0.30;;
80247;SDS011;69560;52.206;21.018;2023-08-07T00:40:40;0.80;;;0.20;;
80247;SDS011;69560;52.206;21.018;2023-08-07T00:43:07;0.40;;;0.20;;
80247;SDS011;69560;52.206;21.018;2023-08-07T00:45:34;0.80;;;0.20;;
80247;SDS011;69560;52.206;21.018;2023-08-07T00:48:04;1.40;;;0.30;;
80247;SDS011;69560;52.206;21.018;2023-08-07T00:50:30;0.50;;;0.30;;
80247;SDS011;69560;52.206;21.018;2023-08-07T00:52:57;0.70;;;0.40;;
80247;SDS011;69560;52.206;21.018;2023-08-07T00:55:24;0.30;;;0.30;;
80247;SDS011;69560;52.206;21.018;2023-08-07T00:57:51;0.80;;;0.40;;
80247;SDS011;69560;52.206;21.018;2023-08-07T01:00:17;2.30;;;0.40;;
80247;SDS011;69560;52.206;21.018;2023-08-07T01:02:47;2.00;;;0.40;;
80247;SDS011;69560;52.206;21.018;2023-08-07T01:07:46;0.40;;;0.40;;
80247;SDS011;69560;52.206;21.018;2023-08-07T01:10:14;1.20;;;0.70;;
80247;SDS011;69560;52.206;21.018;2023-08-07T01:13:01;1.20;;;0.70;;
80247;SDS011;69560;52.206;21.018;2023-08-07T01:15:34;0.70;;;0.70;;
80247;SDS011;69560;52.206;21.018;2023-08-07T01:18:03;1.70;;;0.70;;
80247;SDS011;69560;52.206;21.018;2023-08-07T01:20:33;1.50;;;0.60;;
80247;SDS011;69560;52.206;21.018;2023-08-07T01:23:00;0.90;;;0.70;;
80247;SDS011;69560;52.206;21.018;2023-08-07T01:25:27;0.70;;;0.70;;
80247;SDS011;69560;52.206;21.018;2023-08-07T01:31:02;1.70;;;1.10;;
80247;SDS011;69560;52.206;21.018;2023-08-07T01:33:34;0.70;;;0.70;;
80247;SDS011;69560;52.206;21.018;2023-08-07T01:36:09;2.00;;;0.90;;
80247;SDS011;69560;52.206;21.018;2023-08-07T01:38:37;1.60;;;0.90;;
80247;SDS011;69560;52.206;21.018;2023-08-07T01:41:04;0.80;;;0.80;;
80247;SDS011;69560;52.206;21.018;2023-08-07T01:43:31;0.90;;;0.60;;
80247;SDS011;69560;52.206;21.018;2023-08-07T01:45:58;3.80;;;0.80;;
80247;SDS011;69560;52.206;21.018;2023-08-07T01:48:26;0.60;;;0.60;;
80247;SDS011;69560;52.206;21.018;2023-08-07T01:50:53;2.60;;;0.90;;
80247;SDS011;69560;52.206;21.018;2023-08-07T01:53:20;2.00;;;0.80;;
80247;SDS011;69560;52.206;21.018;2023-08-07T01:55:46;1.00;;;1.00;;
80247;SDS011;69560;52.206;21.018;2023-08-07T01:58:13;1.80;;;0.90;;
80247;SDS011;69560;52.206;21.018;2023-08-07T02:00:39;1.40;;;1.00;;
80247;SDS011;69560;52.206;21.018;2023-08-07T02:03:06;2.00;;;0.80;;
80247;SDS011;69560;52.206;21.018;2023-08-07T02:05:32;1.10;;;1.00;;
80247;SDS011;69560;52.206;21.018;2023-08-07T02:07:59;0.80;;;0.80;;
80247;SDS011;69560;52.206;21.018;2023-08-07T02:10:25;2.60;;;1.30;;
80247;SDS011;69560;52.206;21.018;2023-08-07T02:12:52;1.30;;;0.90;;
80247;SDS011;69560;52.206;21.018;2023-08-07T02:15:18;0.80;;;0.70;;
80247;SDS011;69560;52.206;21.018;2023-08-07T02:17:45;1.00;;;0.90;;
80247;SDS011;69560;52.206;21.018;2023-08-07T02:20:11;1.30;;;0.70;;
80247;SDS011;69560;52.206;21.018;2023-08-07T02:22:38;0.70;;;0.70;;
80247;SDS011;69560;52.206;21.018;2023-08-07T02:25:04;1.10;;;0.90;;
80247;SDS011;69560;52.206;21.018;2023-08-07T02:27:31;3.30;;;1.00;;
80247;SDS011;69560;52.206;21.018;2023-08-07T02:29:58;0.60;;;0.60;;
80247;SDS011;69560;52.206;21.018;2023-08-07T02:32:24;1.30;;;0.90;;
80247;SDS011;69560;52.206;21.018;2023-08-07T02:34:50;1.60;;;0.80;;
80247;SDS011;69560;52.206;21.018;2023-08-07T02:37:17;1.70;;;0.90;;
80247;SDS011;69560;52.206;21.018;2023-08-07T02:39:44;1.60;;;0.70;;
80247;SDS011;69560;52.206;21.018;2023-08-07T02:42:10;0.90;;;0.80;;
80247;SDS011;69560;52.206;21.018;2023-08-07T02:44:36;0.70;;;0.70;;
80247;SDS011;69560;52.206;21.018;2023-08-07T02:47:03;1.00;;;0.80;;
80247;SDS011;69560;52.206;21.018;2023-08-07T02:49:30;1.50;;;0.70;;
80247;SDS011;69560;52.206;21.018;2023-08-07T02:51:56;1.30;;;0.80;;
80247;SDS011;69560;52.206;21.018;2023-08-07T02:54:23;1.60;;;0.80;;
80247;SDS011;69560;52.206;21.018;2023-08-07T02:56:49;1.00;;;0.90;;
80247;SDS011;69560;52.206;21.018;2023-08-07T02:59:16;1.10;;;0.50;;
80247;SDS011;69560;52.206;21.018;2023-08-07T03:01:43;2.90;;;0.40;;
80247;SDS011;69560;52.206;21.018;2023-08-07T03:04:10;2.50;;;1.10;;
80247;SDS011;69560;52.206;21.018;2023-08-07T03:06:37;0.90;;;0.80;;
80247;SDS011;69560;52.206;21.018;2023-08-07T03:09:03;1.70;;;0.60;;
80247;SDS011;69560;52.206;21.018;2023-08-07T03:11:30;0.90;;;0.70;;
80247;SDS011;69560;52.206;21.018;2023-08-07T03:13:56;0.70;;;0.60;;
80247;SDS011;69560;52.206;21.018;2023-08-07T03:16:22;1.30;;;0.70;;
80247;SDS011;69560;52.206;21.018;2023-08-07T03:18:49;1.60;;;0.90;;
80247;SDS011;69560;52.206;21.018;2023-08-07T03:21:15;1.60;;;0.90;;
80247;SDS011;69560;52.206;21.018;2023-08-07T03:23:42;1.90;;;1.00;;
80247;SDS011;69560;52.206;21.018;2023-08-07T03:26:09;1.10;;;0.90;;
80247;SDS011;69560;52.206;21.018;2023-08-07T03:28:37;1.00;;;0.90;;
80247;SDS011;69560;52.206;21.018;2023-08-07T03:31:04;1.20;;;1.10;;
80247;SDS011;69560;52.206;21.018;2023-08-07T03:33:31;1.30;;;1.10;;
80247;SDS011;69560;52.206;21.018;2023-08-07T03:35:57;2.10;;;1.20;;
80247;SDS011;69560;52.206;21.018;2023-08-07T03:38:24;2.00;;;1.20;;
80247;SDS011;69560;52.206;21.018;2023-08-07T03:40:50;1.30;;;0.90;;
80247;SDS011;69560;52.206;21.018;2023-08-07T03:43:17;1.30;;;1.10;;
80247;SDS011;69560;52.206;21.018;2023-08-07T03:45:43;1.20;;;1.00;;
80247;SDS011;69560;52.206;21.018;2023-08-07T03:48:10;1.50;;;1.20;;
80247;SDS011;69560;52.206;21.018;2023-08-07T03:50:36;2.80;;;1.60;;
80247;SDS011;69560;52.206;21.018;2023-08-07T03:53:05;1.50;;;1.40;;
80247;SDS011;69560;52.206;21.018;2023-08-07T03:55:34;1.40;;;1.30;;
80247;SDS011;69560;52.206;21.018;2023-08-07T03:58:01;1.80;;;1.30;;
80247;SDS011;69560;52.206;21.018;2023-08-07T04:00:28;1.30;;;1.10;;
80247;SDS011;69560;52.206;21.018;2023-08-07T04:02:55;2.30;;;1.40;;
80247;SDS011;69560;52.206;21.018;2023-08-07T04:05:22;1.60;;;1.20;;
80247;SDS011;69560;52.206;21.018;2023-08-07T04:07:48;2.30;;;1.80;;
80247;SDS011;69560;52.206;21.018;2023-08-07T04:10:15;1.90;;;1.50;;
80247;SDS011;69560;52.206;21.018;2023-08-07T04:12:41;2.00;;;1.60;;
80247;SDS011;69560;52.206;21.018;2023-08-07T04:15:08;2.00;;;1.60;;
80247;SDS011;69560;52.206;21.018;2023-08-07T04:17:36;3.40;;;1.50;;
80247;SDS011;69560;52.206;21.018;2023-08-07T04:20:02;1.30;;;1.20;;
80247;SDS011;69560;52.206;21.018;2023-08-07T04:22:29;2.70;;;1.30;;
80247;SDS011;69560;52.206;21.018;2023-08-07T04:24:56;1.70;;;1.30;;
80247;SDS011;69560;52.206;21.018;2023-08-07T04:27:22;1.40;;;1.30;;
80247;SDS011;69560;52.206;21.018;2023-08-07T04:29:49;2.30;;;1.10;;
80247;SDS011;69560;52.206;21.018;2023-08-07T04:32:15;1.30;;;1.00;;
80247;SDS011;69560;52.206;21.018;2023-08-07T04:34:41;1.30;;;1.20;;
80247;SDS011;69560;52.206;21.018;2023-08-07T04:37:08;2.70;;;1.20;;
80247;SDS011;69560;52.206;21.018;2023-08-07T04:39:34;2.90;;;1.00;;
80247;SDS011;69560;52.206;21.018;2023-08-07T04:42:02;2.70;;;1.10;;
80247;SDS011;69560;52.206;21.018;2023-08-07T04:44:29;2.50;;;0.90;;
80247;SDS011;69560;52.206;21.018;2023-08-07T04:46:55;1.90;;;0.80;;
80247;SDS011;69560;52.206;21.018;2023-08-07T04:49:22;1.10;;;1.00;;
80247;SDS011;69560;52.206;21.018;2023-08-07T04:51:49;1.00;;;0.90;;
80247;SDS011;69560;52.206;21.018;2023-08-07T04:54:15;1.90;;;0.70;;
80247;SDS011;69560;52.206;21.018;2023-08-07T04:56:41;1.00;;;0.90;;
80247;SDS011;69560;52.206;21.018;2023-08-07T04:59:11;3.70;;;1.20;;
80247;SDS011;69560;52.206;21.018;2023-08-07T05:01:37;2.40;;;0.80;;
80247;SDS011;69560;52.206;21.018;2023-08-07T05:04:04;0.50;;;0.50;;
80247;SDS011;69560;52.206;21.018;2023-08-07T05:06:31;1.10;;;0.80;;
80247;SDS011;69560;52.206;21.018;2023-08-07T05:08:58;4.00;;;2.10;;
80247;SDS011;69560;52.206;21.018;2023-08-07T05:11:24;2.60;;;1.40;;
80247;SDS011;69560;52.206;21.018;2023-08-07T05:13:50;2.90;;;1.00;;
80247;SDS011;69560;52.206;21.018;2023-08-07T05:16:17;1.20;;;1.10;;
80247;SDS011;69560;52.206;21.018;2023-08-07T05:18:45;1.40;;;1.00;;
80247;SDS011;69560;52.206;21.018;2023-08-07T05:21:11;1.50;;;1.00;;
80247;SDS011;69560;52.206;21.018;2023-08-07T05:23:38;1.50;;;1.10;;
80247;SDS011;69560;52.206;21.018;2023-08-07T05:26:04;1.30;;;1.20;;
80247;SDS011;69560;52.206;21.018;2023-08-07T05:28:31;1.70;;;1.40;;
80247;SDS011;69560;52.206;21.018;2023-08-07T05:30:57;2.80;;;1.40;;
80247;SDS011;69560;52.206;21.018;2023-08-07T05:33:23;3.30;;;1.00;;
80247;SDS011;69560;52.206;21.018;2023-08-07T05:35:50;3.60;;;1.10;;
80247;SDS011;69560;52.206;21.018;2023-08-07T05:38:18;1.60;;;1.30;;
80247;SDS011;69560;52.206;21.018;2023-08-07T05:40:45;2.00;;;1.60;;
80247;SDS011;69560;52.206;21.018;2023-08-07T05:43:11;3.90;;;1.40;;
80247;SDS011;69560;52.206;21.018;2023-08-07T05:45:38;2.20;;;1.60;;
80247;SDS011;69560;52.206;21.018;2023-08-07T05:48:05;1.50;;;1.40;;
80247;SDS011;69560;52.206;21.018;2023-08-07T05:50:32;1.70;;;1.30;;
80247;SDS011;69560;52.206;21.018;2023-08-07T05:52:59;2.90;;;1.80;;
80247;SDS011;69560;52.206;21.018;2023-08-07T05:55:25;3.30;;;2.00;;
80247;SDS011;69560;52.206;21.018;2023-08-07T05:57:52;4.80;;;1.70;;
80247;SDS011;69560;52.206;21.018;2023-08-07T06:00:18;7.80;;;2.10;;
80247;SDS011;69560;52.206;21.018;2023-08-07T06:02:45;2.00;;;1.60;;
80247;SDS011;69560;52.206;21.018;2023-08-07T06:05:12;4.00;;;1.60;;
80247;SDS011;69560;52.206;21.018;2023-08-07T06:07:40;1.60;;;1.50;;
80247;SDS011;69560;52.206;21.018;2023-08-07T06:10:07;2.30;;;1.40;;
80247;SDS011;69560;52.206;21.018;2023-08-07T06:12:34;4.50;;;1.40;;
80247;SDS011;69560;52.206;21.018;2023-08-07T06:15:00;6.10;;;1.70;;
80247;SDS011;69560;52.206;21.018;2023-08-07T06:17:27;1.90;;;1.30;;
80247;SDS011;69560;52.206;21.018;2023-08-07T06:19:53;2.30;;;1.60;;
80247;SDS011;69560;52.206;21.018;2023-08-07T06:22:20;1.70;;;1.50;;
80247;SDS011;69560;52.206;21.018;2023-08-07T06:24:46;3.10;;;1.90;;
80247;SDS011;69560;52.206;21.018;2023-08-07T06:27:13;2.30;;;1.80;;
80247;SDS011;69560;52.206;21.018;2023-08-07T06:29:40;1.70;;;1.50;;
80247;SDS011;69560;52.206;21.018;2023-08-07T06:32:06;3.00;;;1.60;;
80247;SDS011;69560;52.206;21.018;2023-08-07T06:34:34;2.20;;;1.70;;
80247;SDS011;69560;52.206;21.018;2023-08-07T06:37:01;2.30;;;1.60;;
80247;SDS011;69560;52.206;21.018;2023-08-07T06:39:28;2.10;;;1.40;;
80247;SDS011;69560;52.206;21.018;2023-08-07T06:41:55;2.40;;;1.40;;
80247;SDS011;69560;52.206;21.018;2023-08-07T06:44:22;2.40;;;1.60;;
80247;SDS011;69560;52.206;21.018;2023-08-07T06:46:49;4.70;;;1.60;;
80247;SDS011;69560;52.206;21.018;2023-08-07T06:49:15;1.60;;;1.20;;
80247;SDS011;69560;52.206;21.018;2023-08-07T06:51:42;2.00;;;1.20;;
80247;SDS011;69560;52.206;21.018;2023-08-07T06:54:08;2.60;;;1.30;;
80247;SDS011;69560;52.206;21.018;2023-08-07T06:56:35;2.50;;;1.10;;
80247;SDS011;69560;52.206;21.018;2023-08-07T06:59:04;1.70;;;1.50;;
80247;SDS011;69560;52.206;21.018;2023-08-07T07:01:30;2.50;;;1.40;;
80247;SDS011;69560;52.206;21.018;2023-08-07T07:03:58;3.90;;;1.50;;
80247;SDS011;69560;52.206;21.018;2023-08-07T07:06:25;4.60;;;1.40;;
80247;SDS011;69560;52.206;21.018;2023-08-07T07:08:52;1.80;;;1.30;;
80247;SDS011;69560;52.206;21.018;2023-08-07T07:11:22;2.30;;;1.50;;
80247;SDS011;69560;52.206;21.018;2023-08-07T07:13:50;2.50;;;1.50;;
80247;SDS011;69560;52.206;21.018;2023-08-07T07:16:18;2.70;;;1.50;;
80247;SDS011;69560;52.206;21.018;2023-08-07T07:18:45;2.10;;;1.60;;
80247;SDS011;69560;52.206;21.018;2023-08-07T07:21:11;1.60;;;1.50;;
80247;SDS011;69560;52.206;21.018;2023-08-07T07:23:38;4.10;;;1.30;;
80247;SDS011;69560;52.206;21.018;2023-08-07T07:26:04;1.80;;;1.30;;
80247;SDS011;69560;52.206;21.018;2023-08-07T07:28:30;2.70;;;1.50;;
80247;SDS011;69560;52.206;21.018;2023-08-07T07:30:58;2.40;;;1.70;;
80247;SDS011;69560;52.206;21.018;2023-08-07T07:33:24;3.30;;;1.60;;
80247;SDS011;69560;52.206;21.018;2023-08-07T07:35:51;2.10;;;1.20;;
80247;SDS011;69560;52.206;21.018;2023-08-07T07:38:17;2.80;;;1.50;;
80247;SDS011;69560;52.206;21.018;2023-08-07T07:40:44;3.10;;;1.60;;
80247;SDS011;69560;52.206;21.018;2023-08-07T07:43:11;2.00;;;1.40;;
80247;SDS011;69560;52.206;21.018;2023-08-07T07:45:38;3.00;;;1.10;;
80247;SDS011;69560;52.206;21.018;2023-08-07T07:48:05;7.80;;;1.60;;
80247;SDS011;69560;52.206;21.018;2023-08-07T07:50:34;3.70;;;1.10;;
80247;SDS011;69560;52.206;21.018;2023-08-07T07:53:00;4.50;;;1.60;;
80247;SDS011;69560;52.206;21.018;2023-08-07T07:55:27;2.10;;;1.50;;
80247;SDS011;69560;52.206;21.018;2023-08-07T07:57:54;2.90;;;1.30;;
80247;SDS011;69560;52.206;21.018;2023-08-07T08:00:22;2.20;;;1.70;;
80247;SDS011;69560;52.206;21.018;2023-08-07T08:02:52;4.50;;;1.50;;
80247;SDS011;69560;52.206;21.018;2023-08-07T08:05:20;5.10;;;1.60;;
80247;SDS011;69560;52.206;21.018;2023-08-07T08:07:47;2.10;;;1.40;;
80247;SDS011;69560;52.206;21.018;2023-08-07T08:10:13;5.90;;;1.70;;
80247;SDS011;69560;52.206;21.018;2023-08-07T08:12:40;2.60;;;1.70;;
80247;SDS011;69560;52.206;21.018;2023-08-07T08:15:07;2.80;;;1.70;;
80247;SDS011;69560;52.206;21.018;2023-08-07T08:17:34;3.40;;;1.60;;
80247;SDS011;69560;52.206;21.018;2023-08-07T08:20:00;3.40;;;1.50;;
80247;SDS011;69560;52.206;21.018;2023-08-07T08:22:27;1.30;;;1.20;;
80247;SDS011;69560;52.206;21.018;2023-08-07T08:24:53;1.40;;;1.30;;
80247;SDS011;69560;52.206;21.018;2023-08-07T08:27:19;3.20;;;1.50;;
80247;SDS011;69560;52.206;21.018;2023-08-07T08:29:47;1.60;;;1.20;;
80247;SDS011;69560;52.206;21.018;2023-08-07T08:32:13;3.30;;;1.40;;
80247;SDS011;69560;52.206;21.018;2023-08-07T08:34:40;1.60;;;1.50;;
80247;SDS011;69560;52.206;21.018;2023-08-07T08:37:06;2.00;;;1.50;;
80247;SDS011;69560;52.206;21.018;2023-08-07T08:39:34;3.40;;;1.50;;
80247;SDS011;69560;52.206;21.018;2023-08-07T08:42:00;3.40;;;1.20;;
80247;SDS011;69560;52.206;21.018;2023-08-07T08:44:27;1.60;;;1.30;;
80247;SDS011;69560;52.206;21.018;2023-08-07T08:46:56;3.30;;;1.50;;
80247;SDS011;69560;52.206;21.018;2023-08-07T08:49:28;1.70;;;1.50;;
80247;SDS011;69560;52.206;21.018;2023-08-07T08:51:59;3.30;;;1.50;;
80247;SDS011;69560;52.206;21.018;2023-08-07T08:54:26;3.20;;;1.40;;
80247;SDS011;69560;52.206;21.018;2023-08-07T08:56:52;2.70;;;1.20;;
80247;SDS011;69560;52.206;21.018;2023-08-07T08:59:20;1.30;;;1.20;;
80247;SDS011;69560;52.206;21.018;2023-08-07T09:01:48;1.90;;;1.20;;
80247;SDS011;69560;52.206;21.018;2023-08-07T09:04:17;2.80;;;1.20;;
80247;SDS011;69560;52.206;21.018;2023-08-07T09:06:44;7.00;;;1.30;;
80247;SDS011;69560;52.206;21.018;2023-08-07T09:09:13;3.30;;;0.90;;
80247;SDS011;69560;52.206;21.018;2023-08-07T09:11:41;2.80;;;1.10;;
80247;SDS011;69560;52.206;21.018;2023-08-07T09:14:11;2.40;;;1.20;;
80247;SDS011;69560;52.206;21.018;2023-08-07T09:16:43;1.50;;;1.00;;
80247;SDS011;69560;52.206;21.018;2023-08-07T09:19:13;2.80;;;1.60;;
80247;SDS011;69560;52.206;21.018;2023-08-07T09:21:40;1.60;;;1.40;;
80247;SDS011;69560;52.206;21.018;2023-08-07T09:24:06;1.80;;;1.20;;
80247;SDS011;69560;52.206;21.018;2023-08-07T09:26:33;3.50;;;1.20;;
80247;SDS011;69560;52.206;21.018;2023-08-07T09:29:00;1.60;;;1.00;;
80247;SDS011;69560;52.206;21.018;2023-08-07T09:31:28;4.80;;;1.00;;
80247;SDS011;69560;52.206;21.018;2023-08-07T09:34:02;1.60;;;1.10;;
80247;SDS011;69560;52.206;21.018;2023-08-07T09:36:31;2.30;;;1.00;;
80247;SDS011;69560;52.206;21.018;2023-08-07T09:39:01;1.70;;;1.00;;
80247;SDS011;69560;52.206;21.018;2023-08-07T09:41:29;2.40;;;1.00;;
80247;SDS011;69560;52.206;21.018;2023-08-07T09:43:56;2.90;;;1.00;;
80247;SDS011;69560;52.206;21.018;2023-08-07T09:46:26;3.20;;;1.00;;
80247;SDS011;69560;52.206;21.018;2023-08-07T09:48:56;2.70;;;1.00;;
80247;SDS011;69560;52.206;21.018;2023-08-07T09:51:24;1.80;;;1.00;;
80247;SDS011;69560;52.206;21.018;2023-08-07T09:53:51;2.20;;;0.80;;
80247;SDS011;69560;52.206;21.018;2023-08-07T09:56:19;3.70;;;0.90;;
80247;SDS011;69560;52.206;21.018;2023-08-07T09:58:48;1.70;;;0.90;;
80247;SDS011;69560;52.206;21.018;2023-08-07T10:01:15;1.30;;;0.90;;
80247;SDS011;69560;52.206;21.018;2023-08-07T10:03:43;1.20;;;0.80;;
80247;SDS011;69560;52.206;21.018;2023-08-07T10:06:10;2.50;;;1.10;;
80247;SDS011;69560;52.206;21.018;2023-08-07T10:08:39;4.40;;;1.00;;
80247;SDS011;69560;52.206;21.018;2023-08-07T10:11:07;1.90;;;0.90;;
80247;SDS011;69560;52.206;21.018;2023-08-07T10:13:36;1.80;;;1.00;;
80247;SDS011;69560;52.206;21.018;2023-08-07T10:16:03;4.50;;;0.90;;
80247;SDS011;69560;52.206;21.018;2023-08-07T10:18:30;1.50;;;0.80;;
80247;SDS011;69560;52.206;21.018;2023-08-07T10:20:57;1.20;;;0.80;;
80247;SDS011;69560;52.206;21.018;2023-08-07T10:23:24;2.50;;;1.00;;
80247;SDS011;69560;52.206;21.018;2023-08-07T10:25:52;3.80;;;1.20;;
80247;SDS011;69560;52.206;21.018;2023-08-07T10:28:20;1.20;;;0.90;;
80247;SDS011;69560;52.206;21.018;2023-08-07T10:30:50;0.80;;;0.80;;
80247;SDS011;69560;52.206;21.018;2023-08-07T10:33:17;1.10;;;0.80;;
80247;SDS011;69560;52.206;21.018;2023-08-07T10:35:47;1.30;;;1.00;;
80247;SDS011;69560;52.206;21.018;2023-08-07T10:38:14;1.10;;;0.80;;
80247;SDS011;69560;52.206;21.018;2023-08-07T10:43:38;2.40;;;0.70;;
80247;SDS011;69560;52.206;21.018;2023-08-07T10:46:07;4.00;;;1.00;;
80247;SDS011;69560;52.206;21.018;2023-08-07T10:48:43;2.30;;;1.30;;
80247;SDS011;69560;52.206;21.018;2023-08-07T10:51:17;0.90;;;0.90;;
80247;SDS011;69560;52.206;21.018;2023-08-07T10:53:53;2.30;;;0.70;;
80247;SDS011;69560;52.206;21.018;2023-08-07T10:59:07;1.50;;;1.10;;
80247;SDS011;69560;52.206;21.018;2023-08-07T11:04:07;7.10;;;1.00;;
80247;SDS011;69560;52.206;21.018;2023-08-07T11:06:36;3.20;;;1.20;;
80247;SDS011;69560;52.206;21.018;2023-08-07T11:09:08;2.40;;;0.90;;
80247;SDS011;69560;52.206;21.018;2023-08-07T11:14:14;3.50;;;0.70;;
80247;SDS011;69560;52.206;21.018;2023-08-07T11:16:43;3.70;;;1.20;;
80247;SDS011;69560;52.206;21.018;2023-08-07T11:19:11;1.70;;;0.90;;
80247;SDS011;69560;52.206;21.018;2023-08-07T11:21:40;1.90;;;1.10;;
80247;SDS011;69560;52.206;21.018;2023-08-07T11:24:14;2.50;;;1.00;;
80247;SDS011;69560;52.206;21.018;2023-08-07T11:26:44;3.00;;;1.00;;
80247;SDS011;69560;52.206;21.018;2023-08-07T11:29:15;1.90;;;1.00;;
80247;SDS011;69560;52.206;21.018;2023-08-07T11:31:43;1.00;;;0.90;;
80247;SDS011;69560;52.206;21.018;2023-08-07T11:34:10;5.00;;;0.80;;
80247;SDS011;69560;52.206;21.018;2023-08-07T11:36:41;1.40;;;1.10;;
80247;SDS011;69560;52.206;21.018;2023-08-07T11:39:09;3.30;;;1.10;;
80247;SDS011;69560;52.206;21.018;2023-08-07T11:41:38;2.10;;;0.90;;
80247;SDS011;69560;52.206;21.018;2023-08-07T11:44:07;4.10;;;1.30;;
80247;SDS011;69560;52.206;21.018;2023-08-07T11:46:35;1.40;;;1.00;;
80247;SDS011;69560;52.206;21.018;2023-08-07T11:49:02;2.50;;;0.80;;
80247;SDS011;69560;52.206;21.018;2023-08-07T11:51:32;6.30;;;1.20;;
80247;SDS011;69560;52.206;21.018;2023-08-07T11:53:59;1.50;;;1.10;;
80247;SDS011;69560;52.206;21.018;2023-08-07T11:56:26;4.30;;;0.90;;
80247;SDS011;69560;52.206;21.018;2023-08-07T11:58:53;1.30;;;0.90;;
80247;SDS011;69560;52.206;21.018;2023-08-07T12:01:22;2.30;;;1.10;;
80247;SDS011;69560;52.206;21.018;2023-08-07T12:03:56;2.00;;;1.20;;
80247;SDS011;69560;52.206;21.018;2023-08-07T12:06:35;3.10;;;1.30;;
80247;SDS011;69560;52.206;21.018;2023-08-07T12:09:02;2.50;;;1.10;;
80247;SDS011;69560;52.206;21.018;2023-08-07T12:11:29;2.00;;;1.00;;
80247;SDS011;69560;52.206;21.018;2023-08-07T12:13:59;5.10;;;1.10;;
80247;SDS011;69560;52.206;21.018;2023-08-07T12:16:31;3.60;;;2.30;;
80247;SDS011;69560;52.206;21.018;2023-08-07T12:18:59;2.10;;;1.10;;
80247;SDS011;69560;52.206;21.018;2023-08-07T12:21:25;2.70;;;1.20;;
80247;SDS011;69560;52.206;21.018;2023-08-07T12:23:56;3.50;;;1.20;;
80247;SDS011;69560;52.206;21.018;2023-08-07T12:28:50;4.30;;;1.40;;
80247;SDS011;69560;52.206;21.018;2023-08-07T12:31:18;3.50;;;2.00;;
80247;SDS011;69560;52.206;21.018;2023-08-07T12:33:45;4.30;;;1.50;;
80247;SDS011;69560;52.206;21.018;2023-08-07T12:36:13;2.80;;;1.30;;
80247;SDS011;69560;52.206;21.018;2023-08-07T12:38:41;3.40;;;1.30;;
80247;SDS011;69560;52.206;21.018;2023-08-07T12:41:08;2.80;;;1.40;;
80247;SDS011;69560;52.206;21.018;2023-08-07T12:43:37;1.80;;;1.20;;
80247;SDS011;69560;52.206;21.018;2023-08-07T12:46:04;6.60;;;1.30;;
80247;SDS011;69560;52.206;21.018;2023-08-07T12:48:31;2.00;;;1.40;;
80247;SDS011;69560;52.206;21.018;2023-08-07T12:50:57;3.00;;;1.30;;
80247;SDS011;69560;52.206;21.018;2023-08-07T12:53:26;4.40;;;1.50;;
80247;SDS011;69560;52.206;21.018;2023-08-07T12:55:53;2.00;;;1.40;;
80247;SDS011;69560;52.206;21.018;2023-08-07T12:58:21;7.20;;;1.50;;
80247;SDS011;69560;52.206;21.018;2023-08-07T13:00:53;3.00;;;1.50;;
80247;SDS011;69560;52.206;21.018;2023-08-07T13:03:19;2.30;;;1.10;;
80247;SDS011;69560;52.206;21.018;2023-08-07T13:05:46;3.40;;;1.30;;
80247;SDS011;69560;52.206;21.018;2023-08-07T13:08:14;1.80;;;1.40;;
80247;SDS011;69560;52.206;21.018;2023-08-07T13:10:40;5.80;;;1.50;;
80247;SDS011;69560;52.206;21.018;2023-08-07T13:13:07;5.00;;;1.30;;
80247;SDS011;69560;52.206;21.018;2023-08-07T13:15:33;2.20;;;1.40;;
80247;SDS011;69560;52.206;21.018;2023-08-07T13:18:00;2.10;;;1.30;;
80247;SDS011;69560;52.206;21.018;2023-08-07T13:20:26;2.50;;;1.10;;
80247;SDS011;69560;52.206;21.018;2023-08-07T13:22:53;3.10;;;1.30;;
80247;SDS011;69560;52.206;21.018;2023-08-07T13:25:19;2.10;;;1.20;;
80247;SDS011;69560;52.206;21.018;2023-08-07T13:27:46;3.00;;;1.40;;
80247;SDS011;69560;52.206;21.018;2023-08-07T13:30:13;2.80;;;1.40;;
80247;SDS011;69560;52.206;21.018;2023-08-07T13:32:40;5.20;;;1.30;;
80247;SDS011;69560;52.206;21.018;2023-08-07T13:35:06;1.50;;;1.20;;
80247;SDS011;69560;52.206;21.018;2023-08-07T13:37:33;1.50;;;1.10;;
80247;SDS011;69560;52.206;21.018;2023-08-07T13:39:59;3.90;;;1.40;;
80247;SDS011;69560;52.206;21.018;2023-08-07T13:42:26;1.80;;;1.60;;
80247;SDS011;69560;52.206;21.018;2023-08-07T13:44:54;3.20;;;1.30;;
80247;SDS011;69560;52.206;21.018;2023-08-07T13:47:21;4.10;;;1.70;;
80247;SDS011;69560;52.206;21.018;2023-08-07T13:49:48;2.10;;;1.30;;
80247;SDS011;69560;52.206;21.018;2023-08-07T13:52:15;5.40;;;1.40;;
80247;SDS011;69560;52.206;21.018;2023-08-07T13:54:41;3.80;;;1.30;;
80247;SDS011;69560;52.206;21.018;2023-08-07T13:57:08;1.70;;;1.40;;
80247;SDS011;69560;52.206;21.018;2023-08-07T13:59:35;3.10;;;1.40;;
80247;SDS011;69560;52.206;21.018;2023-08-07T14:02:01;3.60;;;2.20;;
80247;SDS011;69560;52.206;21.018;2023-08-07T14:04:28;1.90;;;1.50;;
80247;SDS011;69560;52.206;21.018;2023-08-07T14:06:55;3.90;;;1.80;;
80247;SDS011;69560;52.206;21.018;2023-08-07T14:09:21;2.90;;;1.70;;
80247;SDS011;69560;52.206;21.018;2023-08-07T14:11:48;2.30;;;1.40;;
80247;SDS011;69560;52.206;21.018;2023-08-07T14:14:16;2.10;;;1.50;;
80247;SDS011;69560;52.206;21.018;2023-08-07T14:16:43;1.90;;;1.40;;
80247;SDS011;69560;52.206;21.018;2023-08-07T14:19:09;3.50;;;1.50;;
80247;SDS011;69560;52.206;21.018;2023-08-07T14:21:36;3.00;;;1.50;;
80247;SDS011;69560;52.206;21.018;2023-08-07T14:24:02;2.80;;;1.60;;
80247;SDS011;69560;52.206;21.018;2023-08-07T14:26:29;1.70;;;1.40;;
80247;SDS011;69560;52.206;21.018;2023-08-07T14:28:56;3.00;;;1.60;;
80247;SDS011;69560;52.206;21.018;2023-08-07T14:31:23;5.40;;;1.70;;
80247;SDS011;69560;52.206;21.018;2023-08-07T14:33:50;3.60;;;1.50;;
80247;SDS011;69560;52.206;21.018;2023-08-07T14:36:16;3.10;;;1.60;;
80247;SDS011;69560;52.206;21.018;2023-08-07T14:38:43;2.60;;;1.80;;
80247;SDS011;69560;52.206;21.018;2023-08-07T14:41:09;3.80;;;2.70;;
80247;SDS011;69560;52.206;21.018;2023-08-07T14:43:36;2.30;;;1.80;;
80247;SDS011;69560;52.206;21.018;2023-08-07T14:46:02;2.30;;;2.00;;
80247;SDS011;69560;52.206;21.018;2023-08-07T14:48:29;2.60;;;1.70;;
80247;SDS011;69560;52.206;21.018;2023-08-07T14:50:56;3.00;;;2.00;;
80247;SDS011;69560;52.206;21.018;2023-08-07T14:53:23;2.50;;;1.80;;